Time;durP1;ratioP1;P1;durP2;ratioP2;P2;SDS_P1;SDS_P2;PMS_P1;PMS_P2;Temp;Humidity;BMP_temperature;BMP_pressure;BME280_temperature;BME280_humidity;BME280_pressure;Samples;Min_cycle;Max_cycle;Signal;HPM_P1;HPM_P2
2022/03/26 00:02:22;;;;;;;25.07;9.70;;;;;;;;;;5014481;28;20906;-74
2022/03/26 00:04:48;;;;;;;30.60;9.97;;;;;;;;;;5014298;28;20412;-74
2022/03/26 00:07:14;;;;;;;33.47;9.47;;;;;;;;;;5014904;28;20394;-74
2022/03/26 00:09:40;;;;;;;33.40;9.90;;;;;;;;;;5013743;28;20416;-74
2022/03/26 00:12:10;;;;;;;39.80;10.17;;;;;;;;;;5012812;28;20518;-73
2022/03/26 00:14:40;;;;;;;42.47;9.50;;;;;;;;;;5016023;28;20424;-74
2022/03/26 00:17:11;;;;;;;25.90;9.17;;;;;;;;;;5013164;28;20435;-74
2022/03/26 00:19:41;;;;;;;31.17;9.50;;;;;;;;;;5009897;28;20428;-75
2022/03/26 00:22:07;;;;;;;21.30;8.17;;;;;;;;;;5014314;28;20940;-74
2022/03/26 00:24:34;;;;;;;23.47;8.87;;;;;;;;;;5014508;28;20447;-74
2022/03/26 00:27:00;;;;;;;33.83;9.70;;;;;;;;;;5014219;28;20423;-72
2022/03/26 00:29:26;;;;;;;30.10;9.33;;;;;;;;;;5014139;28;20428;-71
2022/03/26 00:31:52;;;;;;;36.40;9.80;;;;;;;;;;5012829;28;20786;-71
2022/03/26 00:34:22;;;;;;;36.73;10.30;;;;;;;;;;5014205;28;20765;-71
2022/03/26 00:36:48;;;;;;;31.10;10.67;;;;;;;;;;5013313;28;20455;-71
2022/03/26 00:39:15;;;;;;;40.57;9.27;;;;;;;;;;5012901;28;20997;-71
2022/03/26 00:41:41;;;;;;;49.90;11.20;;;;;;;;;;5013012;28;20502;-71
2022/03/26 00:44:07;;;;;;;35.73;10.83;;;;;;;;;;5014209;28;20459;-74
2022/03/26 00:46:34;;;;;;;32.47;10.33;;;;;;;;;;5013628;28;20430;-73
2022/03/26 00:49:05;;;;;;;41.07;12.53;;;;;;;;;;5013814;28;20894;-74
2022/03/26 00:51:31;;;;;;;29.60;9.20;;;;;;;;;;5013652;28;20463;-74
2022/03/26 00:53:57;;;;;;;25.40;9.67;;;;;;;;;;5014276;28;20415;-74
2022/03/26 00:56:29;;;;;;;31.57;10.40;;;;;;;;;;5013440;28;20961;-74
2022/03/26 00:58:55;;;;;;;28.67;10.03;;;;;;;;;;5014425;28;20466;-74
2022/03/26 01:01:22;;;;;;;29.43;9.00;;;;;;;;;;5013320;28;20460;-74
2022/03/26 01:03:49;;;;;;;25.17;8.70;;;;;;;;;;5013618;28;20420;-74
2022/03/26 01:06:18;;;;;;;30.67;8.87;;;;;;;;;;5013459;28;20459;-74
2022/03/26 01:08:47;;;;;;;25.27;8.70;;;;;;;;;;5012605;28;20424;-74
2022/03/26 01:11:13;;;;;;;20.50;8.30;;;;;;;;;;5013520;28;20454;-74
2022/03/26 01:13:40;;;;;;;39.27;9.80;;;;;;;;;;5013844;28;20488;-74
2022/03/26 01:16:06;;;;;;;39.17;9.63;;;;;;;;;;5013593;28;20420;-74
2022/03/26 01:18:36;;;;;;;36.60;9.13;;;;;;;;;;5012070;28;20428;-74
2022/03/26 01:21:02;;;;;;;25.87;8.90;;;;;;;;;;5012922;28;20518;-74
2022/03/26 01:23:28;;;;;;;28.63;8.50;;;;;;;;;;5015696;28;20499;-74
2022/03/26 01:25:58;;;;;;;29.20;8.60;;;;;;;;;;5017539;28;20446;-74
2022/03/26 01:28:25;;;;;;;27.17;9.10;;;;;;;;;;5017737;28;20751;-74
2022/03/26 01:30:52;;;;;;;52.03;10.40;;;;;;;;;;5017053;28;20483;-74
2022/03/26 01:33:46;;;;;;;38.87;10.40;;;;;;;;;;5016789;28;20424;-74
2022/03/26 01:36:12;;;;;;;24.37;9.53;;;;;;;;;;5007341;28;20412;-75
2022/03/26 01:38:38;;;;;;;26.60;10.50;;;;;;;;;;5017135;28;20482;-74
2022/03/26 01:41:04;;;;;;;32.40;9.07;;;;;;;;;;5017143;28;20464;-74
2022/03/26 01:43:30;;;;;;;30.20;9.83;;;;;;;;;;5013835;28;20428;-71
2022/03/26 01:45:57;;;;;;;37.93;10.50;;;;;;;;;;5016715;28;20944;-71
2022/03/26 01:48:23;;;;;;;35.80;10.57;;;;;;;;;;5016381;28;20420;-71
2022/03/26 01:50:49;;;;;;;24.90;9.33;;;;;;;;;;5015724;28;20517;-71
2022/03/26 01:53:15;;;;;;;33.90;10.30;;;;;;;;;;5016439;28;20522;-72
2022/03/26 01:55:41;;;;;;;34.87;10.97;;;;;;;;;;5016861;28;20408;-71
2022/03/26 01:58:10;;;;;;;37.03;9.10;;;;;;;;;;5016741;28;20788;-74
2022/03/26 02:00:37;;;;;;;25.20;9.00;;;;;;;;;;5016917;28;20455;-74
2022/03/26 02:03:03;;;;;;;28.00;9.77;;;5.90;99.90;;;;;;5016675;28;20428;-74
2022/03/26 02:05:40;;;;;;;31.20;9.60;;;;;;;;;;5017163;28;20403;-73
2022/03/26 02:08:16;;;;;;;23.70;9.33;;;;;;;;;;5015011;28;20432;-74
2022/03/26 02:10:53;;;;;;;30.27;8.67;;;;;;;;;;5016795;28;20414;-74
2022/03/26 02:13:51;;;;;;;31.70;10.17;;;5.80;99.90;;;;;;5014084;28;20423;-74
2022/03/26 02:16:17;;;;;;;21.17;7.83;;;;;;;;;;5016527;28;20910;-74
2022/03/26 02:18:53;;;;;;;21.33;8.33;;;5.70;99.90;;;;;;5016405;28;20427;-74
2022/03/26 02:21:20;;;;;;;32.10;9.60;;;;;;;;;;5003777;28;20950;-74
2022/03/26 02:23:48;;;;;;;37.67;10.63;;;5.60;99.90;;;;;;5010915;28;20412;-74
2022/03/26 02:26:26;;;;;;;41.67;10.90;;;;;;;;;;5016691;28;20452;-74
2022/03/26 02:28:55;;;;;;;25.70;8.20;;;5.60;99.90;;;;;;5016125;28;20925;-72
2022/03/26 02:31:22;;;;;;;31.00;9.30;;;;;;;;;;5015833;28;20439;-71
2022/03/26 02:33:49;;;;;;;33.03;11.23;;;;;;;;;;5014739;28;20435;-72
2022/03/26 02:36:15;;;;;;;27.77;10.93;;;5.50;99.90;;;;;;5014978;28;20772;-71
2022/03/26 02:38:41;;;;;;;37.27;11.47;;;;;;;;;;5015759;28;20526;-71
2022/03/26 02:41:08;;;;;;;33.20;11.73;;;;;;;;;;5016128;28;20462;-71
2022/03/26 02:43:40;;;;;;;32.80;10.20;;;;;;;;;;5015681;28;20771;-73
2022/03/26 02:46:06;;;;;;;23.90;8.10;;;;;;;;;;5015641;28;20503;-74
2022/03/26 02:48:35;;;;;;;29.60;9.87;;;;;;;;;;5015629;28;20428;-74
2022/03/26 02:51:01;;;;;;;41.30;9.27;;;;;;;;;;5015989;28;20442;-74
2022/03/26 02:53:27;;;;;;;31.20;8.37;;;;;;;;;;5015819;28;20898;-74
2022/03/26 02:55:59;;;;;;;26.00;8.93;;;;;;;;;;5016049;28;20801;-74
2022/03/26 02:58:25;;;;;;;21.87;8.60;;;;;;;;;;5015969;28;20409;-72
2022/03/26 03:00:51;;;;;;;33.03;10.10;;;;;;;;;;5015380;28;20485;-74
2022/03/26 03:03:17;;;;;;;27.27;10.73;;;5.20;1.00;;;;;;5015669;28;20428;-74
2022/03/26 03:05:53;;;;;;;36.00;11.97;;;;;;;;;;5015944;28;20483;-74
2022/03/26 03:08:23;;;;;;;33.63;9.70;;;;;;;;;;5015404;28;20478;-74
2022/03/26 03:10:49;;;;;;;22.10;7.53;;;;;;;;;;5015618;28;20412;-74
2022/03/26 03:13:20;;;;;;;37.90;11.00;;;;;;;;;;5024770;28;20897;-74
2022/03/26 03:15:47;;;;;;;36.27;11.13;;;;;;;;;;5003299;28;20632;-74
2022/03/26 03:18:17;;;;;;;28.30;8.67;;;;;;;;;;5015193;28;20427;-74
2022/03/26 03:20:47;;;;;;;50.57;12.40;;;;;;;;;;5015245;28;20506;-74
2022/03/26 03:23:13;;;;;;;34.93;11.43;;;;;;;;;;5015182;28;20423;-74
2022/03/26 03:25:41;;;;;;;32.17;11.33;;;;;;;;;;5014224;28;20770;-74
2022/03/26 03:28:07;;;;;;;31.13;9.27;;;;;;;;;;5013885;28;20428;-75
2022/03/26 03:30:33;;;;;;;34.80;12.37;;;;;;;;;;5015006;28;20640;-72
2022/03/26 03:32:59;;;;;;;33.53;11.80;;;;;;;;;;5014455;28;20420;-71
2022/03/26 03:35:25;;;;;;;31.77;11.70;;;;;;;;;;5014968;28;20435;-72
2022/03/26 03:37:52;;;;;;;33.80;11.93;;;;;;;;;;5014829;28;20435;-71
2022/03/26 03:40:18;;;;;;;45.40;12.03;;;;;;;;;;5014632;28;20415;-72
2022/03/26 03:42:44;;;;;;;36.70;9.13;;;4.90;1.00;;;;;;5013355;28;20426;-72
2022/03/26 03:45:17;;;;;;;32.77;11.40;;;;;;;;;;5014767;28;20424;-72
2022/03/26 03:47:43;;;;;;;37.60;10.63;;;;;;;;;;5014058;28;20892;-71
2022/03/26 03:50:08;;;;;;;30.80;12.07;;;4.70;1.00;;;;;;5014700;28;20853;-71
2022/03/26 03:52:35;;;;;;;31.57;11.83;;;;;;;;;;5014112;28;20503;-71
2022/03/26 03:55:01;;;;;;;26.03;10.20;;;;;;;;;;5014539;28;20899;-71
2022/03/26 03:57:27;;;;;;;29.83;12.68;;;;;;;;;;5013869;28;21001;-71
2022/03/26 03:59:53;;;;;;;40.38;12.18;;;;;;;;;;5015025;28;20670;-74
2022/03/26 04:02:23;;;;;;;29.93;11.83;;;;;;;;;;5014801;28;20200;-74
2022/03/26 04:04:49;;;;;;;29.30;11.80;;;;;;;;;;5014505;28;20499;-74
2022/03/26 04:07:16;;;;;;;30.98;11.57;;;;;;;;;;5014637;28;20212;-73
2022/03/26 04:09:42;;;;;;;24.43;9.00;;;;;;;;;;5014724;28;20176;-74
2022/03/26 04:12:09;;;;;;;30.03;11.07;;;;;;;;;;5015036;28;20883;-74
2022/03/26 04:14:38;;;;;;;25.80;10.93;;;;;;;;;;5014778;28;20865;-71
2022/03/26 04:17:05;;;;;;;30.13;10.57;;;;;;;;;;5012786;28;20431;-71
2022/03/26 04:19:31;;;;;;;27.13;11.30;;;;;;;;;;5014119;28;20427;-72
2022/03/26 04:21:57;;;;;;;27.57;11.70;;;;;;;;;;5014100;28;21024;-72
2022/03/26 04:24:23;;;;;;;32.40;12.03;;;;;;;;;;5013587;28;20454;-71
2022/03/26 04:26:49;;;;;;;31.40;11.23;;;;;;;;;;5014430;28;20766;-71
2022/03/26 04:29:16;;;;;;;34.30;11.53;;;;;;;;;;5012682;28;20438;-73
2022/03/26 04:31:42;;;;;;;35.83;12.60;;;;;;;;;;5013789;28;20484;-73
2022/03/26 04:34:11;;;;;;;33.03;12.03;;;;;;;;;;5013993;28;20457;-73
2022/03/26 04:36:37;;;;;;;23.03;10.83;;;;;;;;;;5014221;28;20422;-74
2022/03/26 04:39:03;;;;;;;29.33;11.60;;;;;;;;;;5013916;28;20438;-74
2022/03/26 04:41:29;;;;;;;52.30;12.53;;;;;;;;;;5014178;28;20801;-73
2022/03/26 04:44:05;;;;;;;39.20;11.80;;;;;;;;;;5013540;28;20427;-74
2022/03/26 04:46:31;;;;;;;36.55;12.70;;;;;;;;;;5013934;28;20415;-72
2022/03/26 04:48:57;;;;;;;34.75;12.32;;;;;;;;;;5013441;28;20184;-71
2022/03/26 04:51:23;;;;;;;34.22;12.68;;;;;;;;;;5013678;28;20677;-71
2022/03/26 04:53:49;;;;;;;33.58;11.55;;;;;;;;;;5013507;28;20185;-71
2022/03/26 04:56:15;;;;;;;33.67;12.13;;;;;;;;;;5011964;28;20185;-72
2022/03/26 04:58:41;;;;;;;30.13;11.13;;;;;;;;;;5013035;28;20432;-71
2022/03/26 05:01:07;;;;;;;37.92;11.45;;;;;;;;;;5014230;28;20467;-73
2022/03/26 05:03:33;;;;;;;29.67;11.57;;;;;;;;;;5013628;28;20209;-74
2022/03/26 05:06:05;;;;;;;24.63;10.93;;;;;;;;;;5013652;28;20424;-73
2022/03/26 05:08:31;;;;;;;28.48;11.50;;;;;;;;;;5013778;28;20933;-73
2022/03/26 05:11:16;;;;;;;27.33;10.57;;;4.20;1.00;;;;;;5013709;28;20179;-74
2022/03/26 05:13:53;;;;;;;29.97;12.00;;;;;;;;;;5011109;28;20177;-74
2022/03/26 05:16:19;;;;;;;31.67;11.98;;;;;;;;;;5013492;28;20428;-71
2022/03/26 05:18:45;;;;;;;40.80;12.65;;;;;;;;;;5013220;28;20267;-72
2022/03/26 05:21:11;;;;;;;40.30;11.73;;;;;;;;;;5013372;28;20205;-71
2022/03/26 05:23:37;;;;;;;33.08;12.30;;;;;;;;;;5013562;28;20515;-72
2022/03/26 05:26:04;;;;;;;37.47;12.50;;;;;;;;;;5013050;28;20212;-71
2022/03/26 05:28:30;;;;;;;29.80;12.70;;;;;;;;;;5013464;28;20169;-72
2022/03/26 05:30:56;;;;;;;41.03;13.18;;;;;;;;;;5012904;28;20584;-72
2022/03/26 05:33:23;;;;;;;34.95;12.68;;;;;;;;;;5013370;28;20173;-72
2022/03/26 05:35:49;;;;;;;26.83;11.20;;;;;;;;;;5012910;28;20184;-72
2022/03/26 05:38:15;;;;;;;26.73;11.55;;;;;;;;;;5013042;28;20648;-72
2022/03/26 05:40:41;;;;;;;35.03;12.20;;;;;;;;;;5012933;28;20349;-72
2022/03/26 05:43:08;;;;;;;29.50;11.95;;;;;;;;;;5013248;28;20177;-72
2022/03/26 05:45:40;;;;;;;39.60;13.48;;;;;;;;;;5012960;28;20181;-73
2022/03/26 05:48:08;;;;;;;33.67;11.48;;;;;;;;;;5004493;28;20628;-74
2022/03/26 05:50:34;;;;;;;32.03;12.85;;;;;;;;;;5013132;28;20212;-74
2022/03/26 05:53:11;;;;;;;29.42;12.15;;;;;;;;;;5013555;28;20181;-73
2022/03/26 05:55:37;;;;;;;43.85;12.70;;;;;;;;;;5012992;28;20295;-73
2022/03/26 05:58:03;;;;;;;39.33;13.30;;;;;;;;;;5013092;28;20212;-74
2022/03/26 06:00:30;;;;;;;31.33;12.63;;;;;;;;;;5013446;28;20459;-74
2022/03/26 06:02:59;;;;;;;32.60;12.77;;;;;;;;;;5013301;28;20184;-74
2022/03/26 06:05:29;;;;;;;33.93;12.87;;;;;;;;;;5013034;28;20427;-74
2022/03/26 06:08:05;;;;;;;36.67;12.60;;;;;;;;;;5012402;28;20914;-74
2022/03/26 06:10:31;;;;;;;39.17;14.00;;;;;;;;;;5003243;28;20864;-73
2022/03/26 06:12:57;;;;;;;41.13;12.60;;;;;;;;;;5010725;28;21016;-74
2022/03/26 06:15:29;;;;;;;31.60;11.80;;;;;;;;;;5016727;28;20446;-74
2022/03/26 06:17:59;;;;;;;32.27;11.40;;;;;;;;;;5016218;28;20942;-74
2022/03/26 06:20:25;;;;;;;33.33;11.23;;;;;;;;;;5016634;28;20458;-74
2022/03/26 06:22:51;;;;;;;37.40;10.43;;;;;;;;;;5016245;28;20428;-74
2022/03/26 06:25:17;;;;;;;44.63;14.80;;;;;;;;;;5016254;28;20435;-74
2022/03/26 06:27:47;;;;;;;55.67;20.60;;;;;;;;;;5009864;28;20805;-73
2022/03/26 06:30:13;;;;;;;41.13;12.83;;;;;;;;;;5016612;28;20411;-71
2022/03/26 06:32:41;;;;;;;48.97;13.87;;;;;;;;;;5014103;28;20898;-73
2022/03/26 06:35:11;;;;;;;66.70;15.83;;;;;;;;;;5005654;28;20423;-73
2022/03/26 06:37:53;;;;;;;39.50;11.63;;;;;;;;;;5015649;28;20420;-74
2022/03/26 06:40:23;;;;;;;44.83;10.80;;;;;;;;;;5015909;28;20439;-73
2022/03/26 06:42:53;;;;;;;31.77;10.90;;;;;;;;;;5015903;28;20412;-74
2022/03/26 06:45:19;;;;;;;37.20;10.20;;;;;;;;;;5015408;28;20424;-72
2022/03/26 06:47:45;;;;;;;39.30;11.93;;;;;;;;;;5015783;28;20412;-72
2022/03/26 06:50:11;;;;;;;33.47;10.70;;;;;;;;;;5015550;28;20467;-72
2022/03/26 06:52:41;;;;;;;32.90;10.07;;;;;;;;;;5015440;28;20459;-74
2022/03/26 06:55:08;;;;;;;35.07;10.77;;;;;;;;;;5015327;28;20910;-72
2022/03/26 06:57:34;;;;;;;30.00;10.40;;;;;;;;;;5015677;28;20423;-72
2022/03/26 07:00:05;;;;;;;44.13;15.03;;;7.40;1.00;;;;;;5015291;28;20416;-72
2022/03/26 07:02:31;;;;;;;30.67;11.13;;;;;;;;;;5015144;28;20466;-72
2022/03/26 07:04:57;;;;;;;41.73;12.20;;;;;;;;;;5014357;28;20775;-69
2022/03/26 07:07:23;;;;;;;31.47;9.67;;;;;;;;;;5013451;28;20519;-72
2022/03/26 07:09:49;;;;;;;35.00;11.87;;;;;;;;;;5015478;28;20558;-72
2022/03/26 07:12:16;;;;;;;35.20;11.50;;;;;;;;;;5015622;28;20917;-72
2022/03/26 07:14:42;;;;;;;36.27;12.07;;;;;;;;;;5015386;28;20503;-74
2022/03/26 07:17:11;;;;;;;36.63;12.93;;;;;;;;;;5015440;28;20515;-75
2022/03/26 07:19:37;;;;;;;35.80;12.73;;;;;;;;;;5015367;28;20918;-74
2022/03/26 07:22:03;;;;;;;39.93;13.40;;;;;;;;;;5013599;28;20959;-74
2022/03/26 07:24:30;;;;;;;37.67;12.50;;;;;;;;;;5015659;28;20516;-76
2022/03/26 07:26:59;;;;;;;50.70;17.13;;;;;;;;;;5015221;28;20458;-74
2022/03/26 07:29:29;;;;;;;37.27;12.73;;;;;;;;;;5015247;28;20434;-74
2022/03/26 07:31:55;;;;;;;36.13;13.97;;;;;;;;;;5015362;28;20785;-74
2022/03/26 07:34:22;;;;;;;49.10;16.90;;;;;;;;;;5015609;28;20454;-75
2022/03/26 07:36:53;;;;;;;38.40;14.37;;;;;;;;;;5015026;28;20399;-74
2022/03/26 07:39:35;;;;;;;45.47;15.87;;;;;;;;;;5015286;28;20419;-73
2022/03/26 07:42:17;;;;;;;67.80;21.00;;;;;;;;;;5014593;28;20463;-74
2022/03/26 07:44:43;;;;;;;42.10;15.07;;;;;;;;;;5014779;28;20502;-74
2022/03/26 07:47:09;;;;;;;45.57;13.47;;;;;;;;;;5014746;28;20444;-72
2022/03/26 07:49:36;;;;;;;57.47;16.10;;;;;;;;;;5014458;28;20415;-72
2022/03/26 07:52:02;;;;;;;41.47;13.93;;;;;;;;;;5014240;28;20526;-72
2022/03/26 07:54:28;;;;;;;60.27;17.17;;;;;;;;;;5014374;28;20420;-71
2022/03/26 07:56:55;;;;;;;47.63;14.40;;;;;;;;;;5014739;28;20839;-71
2022/03/26 07:59:21;;;;;;;56.60;14.70;;;;;;;;;;5013656;28;20539;-71
2022/03/26 08:01:53;;;;;;;48.43;13.87;;;;;;;;;;5013906;28;21042;-74
2022/03/26 08:04:29;;;;;;;58.40;16.63;;;;;;;;;;5014347;28;20914;-74
2022/03/26 08:06:55;;;;;;;36.40;14.07;;;;;;;;;;5014219;28;20465;-74
2022/03/26 08:09:23;;;;;;;37.77;13.27;;;;;;;;;;5011728;28;20423;-74
2022/03/26 08:11:53;;;;;;;41.27;15.87;;;;;;;;;;5014425;28;20424;-74
2022/03/26 08:14:23;;;;;;;42.47;15.60;;;;;;;;;;5014131;28;20443;-74
2022/03/26 08:16:49;;;;;;;35.73;14.60;;;;;;;;;;5014454;28;20788;-74
2022/03/26 08:19:15;;;;;;;47.13;15.90;;;;;;;;;;5014057;28;20537;-75
2022/03/26 08:21:41;;;;;;;61.97;14.50;;;;;;;;;;5014051;28;20456;-75
2022/03/26 08:24:07;;;;;;;39.37;15.00;;;;;;;;;;5014371;28;20538;-74
2022/03/26 08:26:35;;;;;;;44.53;16.20;;;;;;;;;;5014462;28;20403;-74
2022/03/26 08:29:05;;;;;;;68.90;15.10;;;;;;;;;;5009684;28;20420;-76
2022/03/26 08:31:31;;;;;;;46.20;15.00;;;;;;;;;;5014214;28;20399;-74
2022/03/26 08:33:59;;;;;;;38.60;15.90;;;11.80;99.90;;;;;;5013428;28;20408;-71
2022/03/26 08:36:26;;;;;;;42.03;16.07;;;;;;;;;;5006403;28;20889;-71
2022/03/26 08:38:52;;;;;;;43.50;16.83;;;;;;;;;;5014055;28;20444;-72
2022/03/26 08:41:21;;;;;;;50.03;17.03;;;12.20;99.90;;;;;;5012110;28;20487;-71
2022/03/26 08:43:50;;;;;;;36.47;16.07;;;12.30;99.90;;;;;;5013765;28;20772;-71
2022/03/26 08:46:17;;;;;;;43.70;17.50;;;;;;;;;;5012739;28;20399;-71
2022/03/26 08:48:43;;;;;;;55.70;17.77;;;;;;;;;;5012638;28;20431;-71
2022/03/26 08:51:09;;;;;;;57.47;25.87;;;;;;;;;;5013665;28;20460;-71
2022/03/26 08:53:37;;;;;;;45.67;17.20;;;;;;;;;;5013633;28;20440;-71
2022/03/26 08:56:05;;;;;;;45.90;17.30;;;;;;;;;;5013415;28;20383;-71
2022/03/26 08:58:31;;;;;;;49.23;16.77;;;;;;;;;;5013536;28;20435;-71
2022/03/26 09:00:57;;;;;;;44.87;16.23;;;;;;;;;;5013275;28;20491;-71
2022/03/26 09:03:24;;;;;;;61.17;19.43;;;;;;;;;;5013804;28;20387;-71
2022/03/26 09:05:53;;;;;;;44.70;16.73;;;13.10;99.90;;;;;;5013421;28;20422;-72
2022/03/26 09:08:19;;;;;;;43.90;16.30;;;;;;;;;;5013411;28;20881;-70
2022/03/26 09:10:46;;;;;;;50.53;18.30;;;;;;;;;;5012837;28;20894;-71
2022/03/26 09:13:12;;;;;;;44.03;18.53;;;;;;;;;;5020312;28;20449;-71
2022/03/26 09:15:38;;;;;;;50.27;19.07;;;;;;;;;;5012789;28;20493;-71
2022/03/26 09:18:05;;;;;;;57.30;19.63;;;;;;;;;;5013848;28;20749;-71
2022/03/26 09:20:31;;;;;;;57.03;21.20;;;;;;;;;;5013853;28;20424;-76
2022/03/26 09:22:57;;;;;;;51.00;17.60;;;;;;;;;;5013807;28;20881;-75
2022/03/26 09:25:29;;;;;;;45.43;18.10;;;;;;;;;;5013784;28;20419;-76
2022/03/26 09:27:55;;;;;;;58.60;23.70;;;;;;;;;;5013705;28;20469;-71
2022/03/26 09:30:22;;;;;;;64.33;20.63;;;;;;;;;;5005160;28;20538;-70
2022/03/26 09:36:10;;;;;;;41.17;16.87;;;14.30;99.90;;;;;;5013033;28;20457;-78
2022/03/26 09:38:41;;;;;;;49.60;19.27;;;;;;;;;;5013460;28;20420;-78
2022/03/26 09:41:47;;;;;;;49.10;22.20;;;14.70;99.90;;;;;;5013172;28;20461;-78
2022/03/26 09:44:40;;;;;;;37.70;17.00;;;14.80;99.90;;;;;;5014740;28;20382;-79
2022/03/26 09:47:10;;;;;;;79.33;30.20;;;14.90;99.90;;;;;;5017155;28;20428;-78
2022/03/26 09:50:17;;;;;;;43.00;17.53;;;14.90;99.90;;;;;;5017045;28;20386;-79
2022/03/26 09:52:59;;;;;;;46.43;17.40;;;;;;;;;;5009370;28;20929;-80
2022/03/26 09:55:25;;;;;;;75.60;29.83;;;;;;;;;;5004130;28;20405;-75
2022/03/26 09:57:52;;;;;;;55.80;21.17;;;;;;;;;;5017151;28;20386;-74
2022/03/26 10:00:18;;;;;;;65.93;27.23;;;;;;;;;;5016470;28;20402;-74
2022/03/26 10:02:44;;;;;;;63.53;20.27;;;;;;;;;;5014264;28;20801;-74
2022/03/26 10:05:12;;;;;;;64.73;18.30;;;;;;;;;;5016896;28;20444;-74
2022/03/26 10:07:39;;;;;;;79.20;28.60;;;;;;;;;;5016810;28;20414;-74
2022/03/26 10:10:05;;;;;;;63.03;23.67;;;;;;;;;;5016611;28;20428;-74
2022/03/26 10:12:31;;;;;;;52.23;16.50;;;;;;;;;;5020265;28;20941;-74
2022/03/26 10:15:04;;;;;;;56.97;16.77;;;15.70;99.90;;;;;;5022737;28;20402;-74
2022/03/26 10:17:35;;;;;;;46.70;16.77;;;15.70;99.90;;;;;;5016868;28;20395;-73
2022/03/26 10:20:03;;;;;;;43.00;15.47;;;15.80;99.90;;;;;;5016232;28;20442;-74
2022/03/26 10:22:35;;;;;;;52.13;17.10;;;15.80;99.90;;;;;;5015772;28;20451;-74
2022/03/26 10:25:07;;;;;;;116.73;39.43;;;16.00;99.90;;;;;;5016382;28;20430;-74
2022/03/26 10:27:45;;;;;;;46.60;17.80;;;16.20;99.90;;;;;;5015172;28;20474;-74
2022/03/26 10:30:13;;;;;;;54.80;16.30;;;16.30;99.90;;;;;;5015518;28;20416;-75
2022/03/26 10:32:45;;;;;;;37.83;14.63;;;16.30;99.90;;;;;;5008188;28;20436;-71
2022/03/26 10:35:22;;;;;;;45.77;18.43;;;;;;;;;;5015974;28;20444;-71
2022/03/26 10:37:55;;;;;;;50.00;14.27;;;;;;;;;;5016244;28;20408;-71
2022/03/26 10:40:35;;;;;;;49.20;16.73;;;;;;;;;;5015576;28;20415;-71
2022/03/26 10:43:01;;;;;;;74.07;26.30;;;;;;;;;;5015899;28;20918;-71
2022/03/26 10:45:28;;;;;;;38.23;15.10;;;16.70;99.90;;;;;;5015959;28;20464;-71
2022/03/26 10:47:58;;;;;;;38.43;14.83;;;16.80;99.90;;;;;;5016006;28;20413;-71
2022/03/26 10:50:25;;;;;;;46.07;16.00;;;;;;;;;;5014681;28;20444;-71
2022/03/26 10:52:55;;;;;;;48.20;16.93;;;;;;;;;;5015125;28;20974;-71
2022/03/26 10:55:21;;;;;;;42.63;15.00;;;;;;;;;;5014121;28;20422;-71
2022/03/26 10:57:48;;;;;;;41.93;14.00;;;17.30;99.90;;;;;;5015273;28;20764;-71
2022/03/26 11:00:16;;;;;;;40.13;16.60;;;17.30;99.90;;;;;;5014632;28;20495;-71
2022/03/26 11:02:43;;;;;;;41.53;13.80;;;;;;;;;;5015054;28;20464;-71
2022/03/26 11:05:09;;;;;;;56.17;15.90;;;;;;;;;;5015030;28;20797;-71
2022/03/26 11:07:37;;;;;;;35.27;14.77;;;17.20;99.90;;;;;;5014348;28;20417;-71
2022/03/26 11:10:07;;;;;;;47.50;15.80;;;;;;;;;;5014657;28;20430;-71
2022/03/26 11:12:33;;;;;;;40.37;13.70;;;;;;;;;;5017154;28;20497;-71
2022/03/26 11:15:03;;;;;;;32.30;12.63;;;17.40;99.90;;;;;;5014438;28;20437;-71
2022/03/26 11:17:50;;;;;;;35.83;13.30;;;17.50;99.90;;;;;;5013455;28;20434;-71
2022/03/26 11:20:22;;;;;;;64.20;15.07;;;;;;;;;;5014264;28;20434;-74
2022/03/26 11:23:27;;;;;;;46.43;11.73;;;;;;;;;;5014732;28;20434;-74
2022/03/26 11:26:19;;;;;;;41.97;13.50;;;17.80;99.90;;;;;;4996503;28;20465;-74
2022/03/26 11:29:00;;;;;;;39.70;13.47;;;;;;;;;;4992510;28;20578;-74
2022/03/26 11:31:35;;;;;;;34.20;11.83;;;;;;;;;;4999669;28;20440;-74
2022/03/26 11:34:05;;;;;;;32.90;12.07;;;17.90;99.90;;;;;;4992672;28;20420;-74
2022/03/26 11:36:32;;;;;;;36.77;11.67;;;;;;;;;;4992257;28;20428;-74
2022/03/26 11:39:14;;;;;;;30.93;11.10;;;;;;;;;;4992564;28;20910;-74
2022/03/26 11:41:41;;;;;;;33.97;11.33;;;;;;;;;;5004797;28;20466;-74
2022/03/26 11:44:07;;;;;;;32.13;11.10;;;;;;;;;;4996761;28;20437;-74
2022/03/26 11:52:29;;;;;;;31.97;10.93;;;18.20;99.90;;;;;;4973665;28;20530;-74
2022/03/26 11:55:24;;;;;;;40.23;11.80;;;;;;;;;;4973492;28;20495;-74
2022/03/26 11:58:12;;;;;;;33.87;9.97;;;18.40;99.90;;;;;;4989201;28;20416;-74
2022/03/26 12:00:52;;;;;;;40.57;9.57;;;;;;;;;;4994077;28;20486;-74
2022/03/26 12:03:21;;;;;;;24.03;9.23;;;;;;;;;;4995365;28;20422;-72
2022/03/26 12:08:41;;;;;;;23.23;9.60;;;18.80;99.90;;;;;;4993616;28;20411;-71
2022/03/26 12:11:07;;;;;;;48.07;11.90;;;;;;;;;;4993374;28;20940;-71
2022/03/26 12:13:34;;;;;;;31.00;11.50;;;18.90;99.90;;;;;;4998975;28;20451;-71
2022/03/26 12:16:05;;;;;;;36.90;10.53;;;18.90;99.90;;;;;;4993414;28;20432;-71
2022/03/26 12:18:37;;;;;;;37.10;11.87;;;18.90;99.90;;;;;;4994430;28;20442;-71
2022/03/26 12:21:10;;;;;;;32.60;10.47;;;;;;;;;;4994331;28;20467;-71
2022/03/26 12:23:36;;;;;;;36.00;10.50;;;;;;;;;;4994608;28;20431;-71
2022/03/26 12:26:05;;;;;;;33.90;10.57;;;19.00;99.90;;;;;;4993768;28;20420;-71
2022/03/26 12:28:31;;;;;;;30.90;9.50;;;;;;;;;;4994427;28;20427;-71
2022/03/26 12:30:59;;;;;;;28.43;10.53;;;;;;;;;;4993241;28;20507;-71
2022/03/26 12:33:25;;;;;;;35.00;9.90;;;19.10;99.90;;;;;;4994201;28;20886;-71
2022/03/26 12:35:54;;;;;;;37.50;10.03;;;19.20;99.90;;;;;;4994210;28;20965;-74
2022/03/26 12:38:21;;;;;;;24.70;8.90;;;19.10;99.90;;;;;;4994188;28;20550;-74
2022/03/26 12:41:01;;;;;;;29.50;8.13;;;19.20;99.90;;;;;;4994359;28;20966;-74
2022/03/26 12:43:28;;;;;;;23.47;9.47;;;;;;;;;;4994196;28;20424;-74
2022/03/26 12:45:55;;;;;;;31.03;9.10;;;;;;;;;;4993985;28;20427;-73
2022/03/26 12:48:26;;;;;;;36.97;9.47;;;19.50;99.90;;;;;;4992745;28;20412;-73
2022/03/26 12:50:52;;;;;;;33.93;8.97;;;19.50;99.90;;;;;;4994640;28;20454;-77
2022/03/26 12:53:49;;;;;;;29.10;8.50;;;19.50;99.90;;;;;;4993392;28;20925;-77
2022/03/26 12:56:17;;;;;;;21.10;8.40;;;;;;;;;;4991008;28;20439;-77
2022/03/26 12:59:00;;;;;;;20.40;8.27;;;;;;;;;;4992357;28;20994;-78
2022/03/26 13:01:36;;;;;;;21.43;9.00;;;;;;;;;;4987309;28;20465;-78
2022/03/26 13:04:02;;;;;;;27.93;8.10;;;;;;;;;;4984335;28;20424;-77
2022/03/26 13:06:29;;;;;;;24.20;8.80;;;;;;;;;;4983213;28;20922;-77
2022/03/26 13:08:57;;;;;;;21.23;9.00;;;19.80;99.90;;;;;;4992650;28;20909;-77
2022/03/26 13:11:25;;;;;;;30.17;8.63;;;19.90;99.90;;;;;;4991474;28;20984;-74
2022/03/26 13:13:55;;;;;;;48.03;9.53;;;20.00;99.90;;;;;;4991866;28;20461;-74
2022/03/26 13:16:24;;;;;;;26.00;8.27;;;;;;;;;;4991243;28;20581;-74
2022/03/26 13:19:07;;;;;;;20.57;8.60;;;20.20;99.90;;;;;;4992040;28;20469;-73
2022/03/26 13:21:35;;;;;;;19.93;8.57;;;;;;;;;;4984580;28;20461;-73
2022/03/26 13:24:08;;;;;;;26.10;8.30;;;;;;;;;;4984749;28;20485;-74
2022/03/26 13:26:41;;;;;;;25.50;8.97;;;;;;;;;;4995574;28;20426;-73
2022/03/26 13:29:14;;;;;;;22.17;7.73;;;;;;;;;;4995615;28;20791;-73
2022/03/26 13:31:48;;;;;;;20.33;8.00;;;20.50;99.90;;;;;;4994025;28;20433;-73
2022/03/26 13:34:44;;;;;;;21.10;7.87;;;20.40;99.90;;;;;;4979092;28;20466;-73
2022/03/26 13:37:12;;;;;;;29.83;8.40;;;;;;;;;;4995232;28;20471;-78
2022/03/26 13:39:39;;;;;;;38.03;7.73;;;;;;;;;;4997882;28;20404;-76
2022/03/26 13:42:15;;;;;;;32.33;7.70;;;20.40;99.90;;;;;;4997374;28;20551;-75
2022/03/26 13:44:54;;;;;;;40.60;8.30;;;;;;;;;;4997917;28;20408;-75
2022/03/26 13:47:29;;;;;;;30.27;6.50;;;20.60;99.90;;;;;;4985656;28;20416;-76
2022/03/26 13:50:07;;;;;;;51.87;7.97;;;20.50;99.90;;;;;;4993903;28;20429;-75
2022/03/26 13:52:35;;;;;;;24.87;6.30;;;20.50;99.90;;;;;;4997435;28;20449;-75
2022/03/26 13:55:21;;;;;;;33.03;10.13;;;20.30;99.90;;;;;;4997667;28;20776;-75
2022/03/26 13:57:50;;;;;;;22.43;8.93;;;20.50;99.90;;;;;;4991049;28;20422;-75
2022/03/26 14:00:17;;;;;;;30.20;8.57;;;;;;;;;;4985304;28;20413;-76
2022/03/26 14:02:43;;;;;;;31.50;10.00;;;;;;;;;;4996240;28;20462;-76
2022/03/26 14:05:19;;;;;;;34.93;8.77;;;;;;;;;;4998337;28;20405;-76
2022/03/26 14:07:49;;;;;;;32.10;7.80;;;;;;;;;;4996844;28;20755;-74
2022/03/26 14:10:15;;;;;;;18.37;6.20;;;;;;;;;;4997317;28;20776;-74
2022/03/26 14:12:41;;;;;;;29.43;6.97;;;;;;;;;;4998415;28;20740;-75
2022/03/26 14:15:07;;;;;;;21.67;6.13;;;;;;;;;;4997076;28;20505;-75
2022/03/26 14:17:33;;;;;;;25.27;6.80;;;;;;;;;;4996906;28;20908;-74
2022/03/26 14:19:59;;;;;;;11.20;5.17;;;;;;;;;;4986647;28;20488;-73
2022/03/26 14:22:25;;;;;;;17.37;5.70;;;;;;;;;;4996719;28;20560;-73
2022/03/26 14:24:52;;;;;;;22.07;5.87;;;;;;;;;;4996005;28;20765;-73